createdAt,value
2017-10-06T00:01:18.700Z,5.03
2017-10-06T00:03:46.409Z,4.93
2017-10-06T00:06:14.028Z,6.23
2017-10-06T00:08:41.655Z,5.17
2017-10-06T00:11:09.403Z,5.30
2017-10-06T00:13:37.015Z,5.90
2017-10-06T00:16:04.648Z,4.60
2017-10-06T00:18:32.304Z,5.20
2017-10-06T00:20:59.974Z,5.20
2017-10-06T00:23:27.571Z,6.33
2017-10-06T00:25:55.240Z,4.80
2017-10-06T00:28:22.904Z,5.20
2017-10-06T00:30:50.516Z,5.70
2017-10-06T00:33:18.163Z,5.07
2017-10-06T00:35:45.768Z,5.03
2017-10-06T00:38:13.439Z,5.17
2017-10-06T00:40:41.095Z,6.47
2017-10-06T00:43:08.769Z,5.27
2017-10-06T00:45:36.371Z,5.07
2017-10-06T00:48:04.038Z,5.93
2017-10-06T00:50:31.722Z,6.10
2017-10-06T00:52:59.368Z,5.17
2017-10-06T00:55:27.041Z,6.10
2017-10-06T00:57:54.672Z,5.77
2017-10-06T01:00:22.372Z,5.83
2017-10-06T01:02:50.044Z,9.97
2017-10-06T01:05:17.664Z,6.20
2017-10-06T01:07:45.291Z,6.20
2017-10-06T01:10:12.954Z,6.10
2017-10-06T01:12:40.583Z,6.67
2017-10-06T01:15:08.257Z,6.60
2017-10-06T01:17:35.977Z,6.53
2017-10-06T01:20:03.589Z,6.77
2017-10-06T01:22:31.200Z,5.63
2017-10-06T01:24:58.923Z,6.50
2017-10-06T01:27:26.601Z,6.50
2017-10-06T01:29:54.228Z,6.73
2017-10-06T01:32:21.904Z,6.60
2017-10-06T01:34:49.576Z,6.77
2017-10-06T01:37:17.192Z,7.00
2017-10-06T01:39:44.844Z,6.63
2017-10-06T01:42:12.455Z,7.20
2017-10-06T01:44:40.136Z,6.80
2017-10-06T01:47:07.799Z,6.60
2017-10-06T01:49:35.476Z,7.57
2017-10-06T01:52:03.191Z,8.43
2017-10-06T01:54:30.925Z,7.53
2017-10-06T01:56:58.539Z,7.33
2017-10-06T01:59:26.216Z,8.40
2017-10-06T02:01:53.931Z,6.70
2017-10-06T02:04:21.617Z,6.57
2017-10-06T02:06:49.232Z,6.70
2017-10-06T02:09:16.924Z,7.40
2017-10-06T02:11:44.537Z,7.40
2017-10-06T02:14:12.286Z,6.80
2017-10-06T02:16:40.021Z,8.70
2017-10-06T02:19:07.695Z,8.07
2017-10-06T02:21:35.398Z,8.80
2017-10-06T02:24:03.068Z,7.60
2017-10-06T02:26:30.679Z,7.30
2017-10-06T02:28:58.362Z,7.20
2017-10-06T02:31:26.108Z,8.50
2017-10-06T02:33:53.844Z,13.80
2017-10-06T02:36:21.529Z,9.07
2017-10-06T02:38:49.265Z,11.50
2017-10-06T02:41:16.894Z,10.73
2017-10-06T02:43:44.511Z,9.40
2017-10-06T02:46:12.176Z,9.77
2017-10-06T02:48:39.864Z,10.37
2017-10-06T02:51:07.542Z,9.80
2017-10-06T02:53:35.197Z,8.80
2017-10-06T02:56:02.872Z,9.43
2017-10-06T02:58:30.553Z,8.60
2017-10-06T03:00:58.212Z,8.03
2017-10-06T03:03:25.820Z,8.90
2017-10-06T03:05:53.433Z,7.30
2017-10-06T03:08:21.157Z,7.60
2017-10-06T03:10:48.778Z,7.50
2017-10-06T03:13:16.405Z,9.17
2017-10-06T03:15:44.062Z,7.70
2017-10-06T03:18:11.679Z,8.97
2017-10-06T03:20:39.296Z,9.00
2017-10-06T03:23:06.969Z,10.40
2017-10-06T03:25:34.580Z,10.17
2017-10-06T03:28:02.196Z,8.93
2017-10-06T03:30:29.856Z,10.50
2017-10-06T03:32:57.476Z,9.10
2017-10-06T03:35:25.087Z,11.00
2017-10-06T03:37:52.749Z,21.43
2017-10-06T03:40:20.416Z,23.00
2017-10-06T03:42:48.080Z,19.33
2017-10-06T03:45:15.740Z,15.17
2017-10-06T03:47:43.348Z,11.97
2017-10-06T03:50:11.019Z,12.70
2017-10-06T03:52:38.697Z,11.17
2017-10-06T03:55:06.317Z,14.47
2017-10-06T03:57:33.927Z,11.90
2017-10-06T04:00:01.597Z,21.83
2017-10-06T04:02:29.269Z,14.13
2017-10-06T04:04:56.897Z,14.23
2017-10-06T04:07:24.565Z,15.23
2017-10-06T04:09:52.179Z,13.03
2017-10-06T04:12:19.887Z,19.60
2017-10-06T04:14:47.600Z,45.07
2017-10-06T04:17:15.281Z,41.00
2017-10-06T04:19:42.896Z,24.77
2017-10-06T04:22:10.587Z,18.60
2017-10-06T04:24:38.273Z,18.20
2017-10-06T04:27:05.892Z,17.97
2017-10-06T04:29:33.560Z,17.43
2017-10-06T04:32:01.180Z,18.20
2017-10-06T04:34:28.799Z,75.27
2017-10-06T04:36:56.526Z,55.33
2017-10-06T04:39:24.164Z,52.40
2017-10-06T04:41:51.780Z,31.00
2017-10-06T04:44:19.455Z,24.30
2017-10-06T04:46:47.136Z,14.70
2017-10-06T04:49:14.764Z,14.37
2017-10-06T04:51:42.447Z,13.50
2017-10-06T04:54:10.068Z,13.40
2017-10-06T04:56:37.686Z,13.20
2017-10-06T04:59:05.360Z,14.53
2017-10-06T05:01:33.008Z,15.73
2017-10-06T05:04:00.695Z,13.00
2017-10-06T05:06:28.428Z,18.45
2017-10-06T05:08:56.040Z,17.33
2017-10-06T05:11:23.772Z,15.80
2017-10-06T05:13:51.647Z,15.70
2017-10-06T05:16:19.314Z,18.30
2017-10-06T05:18:46.961Z,16.02
2017-10-06T05:21:14.945Z,16.60
2017-10-06T05:23:42.600Z,17.63
2017-10-06T05:26:10.257Z,18.70
2017-10-06T05:28:37.940Z,16.67
2017-10-06T05:31:05.633Z,16.43
2017-10-06T05:33:33.257Z,18.87
2017-10-06T05:36:00.932Z,16.13
2017-10-06T05:38:28.548Z,17.63
2017-10-06T05:40:56.217Z,17.60
2017-10-06T05:43:23.872Z,14.60
2017-10-06T05:45:51.496Z,14.30
2017-10-06T05:48:19.178Z,10.63
2017-10-06T05:50:46.851Z,10.23
2017-10-06T05:53:14.528Z,10.60
2017-10-06T05:55:42.152Z,10.80
2017-10-06T05:58:09.836Z,11.53
2017-10-06T06:00:37.584Z,11.35
2017-10-06T06:03:05.271Z,11.37
2017-10-06T06:05:33.013Z,9.93
2017-10-06T06:08:00.694Z,9.00
2017-10-06T06:10:28.330Z,10.37
2017-10-06T06:12:56.025Z,10.70
2017-10-06T06:15:23.653Z,8.80
2017-10-06T06:17:51.281Z,9.53
2017-10-06T06:20:18.972Z,9.43
2017-10-06T06:22:46.659Z,8.13
2017-10-06T06:25:14.389Z,10.03
2017-10-06T06:27:42.109Z,10.67
2017-10-06T06:30:09.739Z,8.80
2017-10-06T06:32:37.382Z,9.73
2017-10-06T06:35:05.080Z,9.30
2017-10-06T06:37:32.725Z,10.87
2017-10-06T06:40:00.364Z,9.60
2017-10-06T06:42:28.049Z,13.40
2017-10-06T06:44:55.672Z,16.33
2017-10-06T06:47:23.296Z,26.70
2017-10-06T06:49:51.008Z,19.13
2017-10-06T06:52:18.651Z,24.30
2017-10-06T06:54:46.328Z,19.67
2017-10-06T06:57:14.012Z,19.07
2017-10-06T06:59:41.632Z,11.07
2017-10-06T07:02:09.288Z,8.40
2017-10-06T07:04:36.953Z,10.27
2017-10-06T07:07:04.640Z,8.60
2017-10-06T07:09:32.265Z,8.70
2017-10-06T07:11:59.984Z,8.80
2017-10-06T07:14:27.604Z,9.03
2017-10-06T07:16:55.219Z,8.60
2017-10-06T07:19:22.888Z,11.30
2017-10-06T07:21:50.563Z,11.63
2017-10-06T07:24:18.188Z,11.93
2017-10-06T07:26:45.903Z,13.43
2017-10-06T07:29:13.537Z,9.77
2017-10-06T07:31:41.149Z,11.23
2017-10-06T07:34:08.896Z,9.97
2017-10-06T07:36:36.509Z,11.13
2017-10-06T07:39:04.240Z,7.50
2017-10-06T07:41:31.948Z,6.60
2017-10-06T07:43:59.634Z,5.53
2017-10-06T07:46:27.296Z,5.23
2017-10-06T07:48:54.950Z,7.40
2017-10-06T07:51:22.631Z,7.97
2017-10-06T07:53:50.252Z,10.87
2017-10-06T07:56:18.050Z,7.23
2017-10-06T07:58:45.728Z,6.37
2017-10-06T08:01:13.399Z,8.30
2017-10-06T08:03:41.925Z,10.60
2017-10-06T08:06:09.628Z,9.43
2017-10-06T08:08:37.293Z,9.70
2017-10-06T08:11:05.030Z,9.70
2017-10-06T08:13:32.685Z,7.37
2017-10-06T08:16:00.316Z,6.43
2017-10-06T08:18:28.021Z,6.70
2017-10-06T08:20:55.648Z,6.83
2017-10-06T08:23:23.280Z,6.37
2017-10-06T08:25:51.013Z,5.90
2017-10-06T08:28:18.694Z,6.20
2017-10-06T08:30:46.389Z,7.67
2017-10-06T08:33:14.161Z,5.67
2017-10-06T08:35:41.800Z,6.30
2017-10-06T08:38:09.429Z,5.00
2017-10-06T08:40:37.128Z,5.30
2017-10-06T08:43:04.824Z,5.03
2017-10-06T08:45:32.512Z,4.87
2017-10-06T08:48:00.318Z,5.67
2017-10-06T08:50:27.997Z,6.27
2017-10-06T08:52:55.676Z,6.00
2017-10-06T08:55:23.397Z,6.40
2017-10-06T08:57:51.073Z,7.00
2017-10-06T09:00:18.832Z,6.27
2017-10-06T09:02:46.543Z,5.73
2017-10-06T09:05:14.156Z,6.50
2017-10-06T09:07:41.821Z,6.37
2017-10-06T09:10:09.480Z,6.50
2017-10-06T09:12:37.089Z,7.20
2017-10-06T09:15:04.696Z,6.03
2017-10-06T09:17:32.481Z,5.77
2017-10-06T09:20:00.109Z,6.43
2017-10-06T09:22:28.763Z,6.07
2017-10-06T09:24:56.575Z,5.17
2017-10-06T09:27:24.281Z,4.53
2017-10-06T09:29:51.962Z,4.47
2017-10-06T09:32:19.781Z,5.00
2017-10-06T09:34:47.421Z,5.00
2017-10-06T09:37:15.125Z,6.87
2017-10-06T09:39:42.857Z,7.43
2017-10-06T09:42:10.489Z,5.63
2017-10-06T09:44:38.144Z,5.53
2017-10-06T09:47:06.079Z,4.67
2017-10-06T09:49:33.893Z,5.50
2017-10-06T09:52:05.573Z,6.00
2017-10-06T09:57:40.614Z,5.37
2017-10-06T10:02:47.346Z,4.90
2017-10-06T10:05:15.135Z,5.37
2017-10-06T10:07:42.766Z,4.80
2017-10-06T10:10:10.394Z,5.70
2017-10-06T10:12:38.124Z,5.47
2017-10-06T10:15:06.096Z,5.90
2017-10-06T10:17:34.073Z,4.90
2017-10-06T10:20:01.780Z,6.03
2017-10-06T10:22:29.383Z,5.40
2017-10-06T10:24:57.058Z,5.20
2017-10-06T10:27:24.739Z,5.47
2017-10-06T10:29:52.348Z,6.43
2017-10-06T10:32:19.956Z,5.70
2017-10-06T10:34:47.608Z,6.17
2017-10-06T10:37:15.287Z,5.30
2017-10-06T10:39:42.952Z,5.60
2017-10-06T10:42:10.622Z,6.97
2017-10-06T10:44:38.300Z,5.00
2017-10-06T10:47:05.944Z,6.40
2017-10-06T10:49:33.708Z,5.43
2017-10-06T10:52:01.344Z,5.33
2017-10-06T10:54:28.969Z,5.53
2017-10-06T10:56:56.632Z,5.37
2017-10-06T10:59:24.251Z,5.40
2017-10-06T11:01:51.888Z,5.30
2017-10-06T11:04:19.549Z,5.30
2017-10-06T11:06:47.201Z,5.43
2017-10-06T11:09:14.881Z,7.67
2017-10-06T11:11:42.590Z,6.70
2017-10-06T11:14:10.289Z,5.00
2017-10-06T11:16:37.985Z,5.20
2017-10-06T11:19:05.653Z,5.70
2017-10-06T11:21:33.283Z,4.97
2017-10-06T11:24:00.923Z,4.53
2017-10-06T11:26:28.600Z,3.97
2017-10-06T11:28:56.225Z,4.83
2017-10-06T11:31:23.917Z,5.30
2017-10-06T11:33:51.603Z,6.17
2017-10-06T11:36:19.298Z,5.30
2017-10-06T11:38:47.028Z,5.23
2017-10-06T11:41:14.776Z,5.13
2017-10-06T11:43:42.399Z,5.13
2017-10-06T11:46:10.020Z,6.40
2017-10-06T11:48:37.699Z,6.47
2017-10-06T11:51:05.403Z,6.20
2017-10-06T11:53:33.323Z,5.20
2017-10-06T11:56:01.042Z,7.30
2017-10-06T11:58:28.731Z,5.30
2017-10-06T12:00:56.433Z,6.07
2017-10-06T12:03:24.129Z,6.67
2017-10-06T12:05:51.785Z,5.20
2017-10-06T12:08:19.485Z,5.73
2017-10-06T12:10:47.152Z,5.13
2017-10-06T12:13:14.837Z,5.27
2017-10-06T12:15:42.481Z,6.13
2017-10-06T12:18:10.162Z,5.23
2017-10-06T12:20:37.796Z,6.13
2017-10-06T12:23:05.493Z,6.30
2017-10-06T12:25:33.160Z,6.00
2017-10-06T12:28:00.788Z,7.00
2017-10-06T12:30:28.435Z,6.47
2017-10-06T12:32:56.204Z,6.00
2017-10-06T12:35:24.052Z,5.63
2017-10-06T12:37:51.746Z,6.13
2017-10-06T12:40:19.531Z,5.90
2017-10-06T12:42:47.346Z,8.43
2017-10-06T12:45:14.997Z,9.30
2017-10-06T12:47:42.675Z,8.23
2017-10-06T12:50:10.295Z,9.13
2017-10-06T12:52:37.924Z,9.00
2017-10-06T12:55:05.596Z,9.00
2017-10-06T12:57:33.256Z,9.10
2017-10-06T13:00:00.958Z,12.30
2017-10-06T13:02:28.884Z,12.63
2017-10-06T13:04:56.512Z,10.20
2017-10-06T13:07:24.153Z,11.50
2017-10-06T13:09:51.820Z,12.40
2017-10-06T13:12:19.454Z,11.87
2017-10-06T13:14:47.073Z,11.10
2017-10-06T13:17:14.747Z,11.83
2017-10-06T13:19:42.424Z,14.27
2017-10-06T13:22:10.101Z,17.50
2017-10-06T13:24:37.827Z,19.83
2017-10-06T13:27:05.448Z,22.33
2017-10-06T13:29:33.129Z,18.47
2017-10-06T13:32:00.809Z,18.80
2017-10-06T13:34:28.428Z,18.97
2017-10-06T13:36:56.121Z,20.90
2017-10-06T13:39:23.780Z,25.37
2017-10-06T13:41:51.399Z,29.37
2017-10-06T13:44:19.076Z,29.83
2017-10-06T13:46:46.793Z,27.43
2017-10-06T13:49:14.471Z,27.37
2017-10-06T13:51:42.088Z,22.40
2017-10-06T13:54:09.760Z,23.57
2017-10-06T13:56:37.374Z,22.63
2017-10-06T13:59:05.012Z,22.07
2017-10-06T14:01:32.697Z,22.70
2017-10-06T14:04:00.313Z,21.13
2017-10-06T14:06:27.994Z,18.37
2017-10-06T14:08:55.660Z,17.87
2017-10-06T14:11:23.337Z,16.10
2017-10-06T14:13:51.037Z,15.10
2017-10-06T14:16:18.799Z,16.50
2017-10-06T14:18:46.451Z,17.90
2017-10-06T14:21:14.076Z,16.63
2017-10-06T14:23:41.802Z,15.43
2017-10-06T14:26:09.423Z,14.83
2017-10-06T14:28:37.037Z,16.00
2017-10-06T14:31:04.700Z,13.80
2017-10-06T14:33:32.322Z,12.00
2017-10-06T14:35:59.947Z,9.80
2017-10-06T14:38:27.613Z,9.87
2017-10-06T14:40:55.220Z,10.00
2017-10-06T14:43:22.829Z,9.20
2017-10-06T14:45:50.545Z,8.77
2017-10-06T14:48:18.165Z,10.90
2017-10-06T14:50:45.852Z,9.20
2017-10-06T14:53:13.582Z,9.40
2017-10-06T14:55:41.263Z,9.80
2017-10-06T14:58:08.910Z,9.83
2017-10-06T15:00:36.566Z,9.50
2017-10-06T15:03:04.181Z,10.50
2017-10-06T15:05:31.791Z,11.93
2017-10-06T15:07:59.476Z,10.23
2017-10-06T15:10:30.185Z,11.30
2017-10-06T15:12:57.792Z,10.30
2017-10-06T15:15:25.652Z,11.93
2017-10-06T15:17:53.333Z,11.63
2017-10-06T15:20:21.544Z,11.83
2017-10-06T15:22:49.209Z,13.50
2017-10-06T15:25:16.826Z,15.20
2017-10-06T15:27:44.460Z,13.17
2017-10-06T15:30:12.181Z,13.97
2017-10-06T15:32:39.849Z,13.57
2017-10-06T15:35:07.460Z,11.40
2017-10-06T15:37:35.177Z,12.33
2017-10-06T15:40:02.787Z,11.17
2017-10-06T15:42:30.468Z,10.33
2017-10-06T15:44:58.137Z,11.00
2017-10-06T15:47:25.753Z,10.90
2017-10-06T15:49:53.432Z,10.53
2017-10-06T15:52:21.150Z,11.83
2017-10-06T15:54:48.828Z,10.97
2017-10-06T15:57:16.515Z,10.20
2017-10-06T15:59:44.182Z,9.97
2017-10-06T16:02:11.869Z,11.37
2017-10-06T16:04:39.484Z,12.00
2017-10-06T16:07:07.177Z,12.07
2017-10-06T16:09:34.796Z,12.20
2017-10-06T16:12:02.417Z,11.10
2017-10-06T16:14:30.107Z,11.30
2017-10-06T16:16:57.832Z,10.20
2017-10-06T16:19:25.455Z,10.57
2017-10-06T16:21:53.193Z,10.20
2017-10-06T16:24:20.903Z,9.60
2017-10-06T16:26:48.549Z,14.00
2017-10-06T16:29:16.199Z,9.27
2017-10-06T16:31:43.869Z,8.30
2017-10-06T16:34:11.476Z,7.60
2017-10-06T16:36:39.277Z,7.40
2017-10-06T16:39:06.893Z,7.47
2017-10-06T16:41:34.563Z,7.63
2017-10-06T16:44:02.277Z,8.23
2017-10-06T16:46:29.892Z,7.83
2017-10-06T16:48:57.508Z,7.27
2017-10-06T16:51:25.226Z,8.30
2017-10-06T16:53:52.905Z,6.83
2017-10-06T16:56:20.512Z,7.40
2017-10-06T16:58:48.224Z,7.30
2017-10-06T17:01:15.896Z,6.83
2017-10-06T17:03:43.514Z,7.10
2017-10-06T17:06:11.192Z,9.20
2017-10-06T17:08:38.805Z,8.47
2017-10-06T17:11:06.416Z,9.33
2017-10-06T17:13:34.080Z,7.93
2017-10-06T17:16:01.756Z,9.50
2017-10-06T17:18:29.368Z,8.70
2017-10-06T17:20:57.092Z,8.20
2017-10-06T17:23:24.700Z,8.50
2017-10-06T17:25:52.304Z,9.07
2017-10-06T17:28:19.956Z,7.87
2017-10-06T17:30:47.571Z,10.30
2017-10-06T17:33:15.185Z,8.87
2017-10-06T17:35:42.844Z,9.10
2017-10-06T17:38:10.457Z,9.37
2017-10-06T17:40:38.124Z,9.60
2017-10-06T17:43:05.779Z,8.93
2017-10-06T17:45:33.392Z,9.80
2017-10-06T17:48:01.860Z,10.87
2017-10-06T17:50:29.541Z,10.60
2017-10-06T17:52:57.152Z,12.50
2017-10-06T17:55:24.774Z,13.60
2017-10-06T17:57:52.432Z,13.73
2017-10-06T18:00:20.129Z,13.20
2017-10-06T18:02:47.753Z,12.70
2017-10-06T18:05:15.446Z,11.43
2017-10-06T18:07:43.156Z,11.33
2017-10-06T18:10:10.872Z,12.00
2017-10-06T18:12:38.588Z,12.37
2017-10-06T18:15:06.314Z,12.97
2017-10-06T18:17:33.936Z,13.90
2017-10-06T18:20:01.672Z,14.13
2017-10-06T18:22:29.338Z,16.57
2017-10-06T18:24:56.953Z,14.40
2017-10-06T18:27:25.705Z,14.30
2017-10-06T18:29:53.318Z,13.93
2017-10-06T18:32:20.929Z,13.50
2017-10-06T18:34:48.729Z,14.60
2017-10-06T18:37:16.344Z,15.43
2017-10-06T18:39:43.964Z,36.17
2017-10-06T18:42:11.625Z,14.50
2017-10-06T18:44:39.236Z,11.20
2017-10-06T18:47:06.945Z,11.07
2017-10-06T18:49:34.629Z,11.33
2017-10-06T18:52:02.262Z,11.17
2017-10-06T18:54:29.883Z,11.50
2017-10-06T18:56:57.563Z,11.90
2017-10-06T18:59:25.196Z,11.90
2017-10-06T19:01:52.872Z,11.33
2017-10-06T19:04:20.529Z,11.30
2017-10-06T19:06:48.143Z,10.17
2017-10-06T19:09:15.816Z,11.47
2017-10-06T19:11:43.479Z,9.50
2017-10-06T19:14:11.205Z,10.67
2017-10-06T19:16:38.832Z,10.00
2017-10-06T19:19:06.492Z,11.57
2017-10-06T19:21:34.178Z,11.00
2017-10-06T19:24:01.811Z,12.70
2017-10-06T19:26:30.424Z,12.93
2017-10-06T19:28:58.975Z,14.53
2017-10-06T19:31:26.655Z,14.40
2017-10-06T19:33:54.344Z,14.90
2017-10-06T19:36:22.018Z,15.40
2017-10-06T19:38:49.687Z,13.40
2017-10-06T19:41:17.361Z,11.87
2017-10-06T19:43:45.029Z,13.90
2017-10-06T19:46:12.699Z,11.97
2017-10-06T19:48:40.356Z,11.47
2017-10-06T19:51:07.972Z,10.73
2017-10-06T19:53:35.580Z,10.20
2017-10-06T19:56:03.243Z,11.23
2017-10-06T19:58:30.856Z,10.47
2017-10-06T20:00:58.476Z,10.73
2017-10-06T20:03:26.157Z,11.77
2017-10-06T20:05:53.830Z,10.50
2017-10-06T20:08:21.449Z,10.20
2017-10-06T20:10:49.108Z,10.47
2017-10-06T20:13:16.728Z,12.07
2017-10-06T20:15:44.414Z,11.10
2017-10-06T20:18:13.004Z,12.10
2017-10-06T20:20:40.685Z,11.33
2017-10-06T20:23:08.296Z,15.03
2017-10-06T20:25:36.020Z,15.23
2017-10-06T20:28:03.651Z,15.00
2017-10-06T20:30:31.334Z,14.43
2017-10-06T20:32:59.053Z,15.00
2017-10-06T20:35:26.681Z,13.33
2017-10-06T20:37:54.299Z,12.27
2017-10-06T20:40:22.012Z,16.60
2017-10-06T20:42:49.620Z,17.00
2017-10-06T20:45:17.292Z,13.70
2017-10-06T20:47:45.011Z,13.50
2017-10-06T20:50:12.628Z,11.60
2017-10-06T20:52:40.259Z,10.47
2017-10-06T20:55:07.972Z,10.73
2017-10-06T20:57:35.599Z,9.40
2017-10-06T21:00:03.267Z,11.27
2017-10-06T21:02:30.924Z,9.50
2017-10-06T21:04:58.592Z,9.93
2017-10-06T21:07:26.199Z,9.70
2017-10-06T21:09:53.917Z,7.70
2017-10-06T21:12:21.584Z,7.80
2017-10-06T21:14:49.193Z,6.30
2017-10-06T21:17:16.870Z,6.57
2017-10-06T21:19:44.539Z,6.30
2017-10-06T21:22:12.148Z,5.70
2017-10-06T21:24:39.807Z,5.37
2017-10-06T21:27:07.424Z,5.67
2017-10-06T21:29:35.088Z,5.60
2017-10-06T21:32:02.755Z,6.47
2017-10-06T21:34:30.372Z,5.53
2017-10-06T21:36:58.036Z,4.90
2017-10-06T21:39:25.756Z,4.67
2017-10-06T21:41:53.421Z,5.13
2017-10-06T21:44:21.027Z,5.17
2017-10-06T21:46:48.680Z,5.23
2017-10-06T21:49:16.292Z,5.50
2017-10-06T21:51:43.901Z,5.23
2017-10-06T21:54:11.617Z,5.70
2017-10-06T21:56:39.225Z,5.33
2017-10-06T21:59:06.832Z,5.43
2017-10-06T22:01:34.497Z,5.97
2017-10-06T22:04:02.173Z,6.50
2017-10-06T22:06:29.788Z,6.13
2017-10-06T22:08:57.503Z,6.90
2017-10-06T22:11:25.116Z,7.30
2017-10-06T22:13:52.729Z,7.53
2017-10-06T22:16:20.445Z,7.77
2017-10-06T22:18:48.053Z,6.93
2017-10-06T22:21:15.668Z,8.30
2017-10-06T22:23:43.320Z,8.23
2017-10-06T22:26:10.988Z,9.10
2017-10-06T22:28:38.652Z,8.37
2017-10-06T22:31:06.381Z,8.30
2017-10-06T22:33:33.992Z,7.00
2017-10-06T22:36:01.648Z,7.20
2017-10-06T22:38:29.304Z,6.77
2017-10-06T22:40:56.970Z,6.20
2017-10-06T22:43:24.572Z,6.90
2017-10-06T22:45:52.251Z,6.90
2017-10-06T22:48:19.972Z,5.87
2017-10-06T22:50:47.647Z,6.73
2017-10-06T22:53:15.319Z,6.50
2017-10-06T22:55:42.922Z,6.97
2017-10-06T22:58:10.586Z,6.60
2017-10-06T23:00:38.224Z,7.27
2017-10-06T23:03:05.826Z,6.60
2017-10-06T23:05:33.479Z,7.67
2017-10-06T23:08:01.179Z,7.83
2017-10-06T23:10:28.896Z,8.00
2017-10-06T23:12:56.491Z,7.20
2017-10-06T23:15:24.142Z,8.83
2017-10-06T23:17:51.754Z,8.80
2017-10-06T23:20:19.361Z,8.50
2017-10-06T23:22:47.043Z,9.50
2017-10-06T23:25:14.647Z,9.30
2017-10-06T23:27:42.308Z,10.27
2017-10-06T23:30:09.958Z,9.43
2017-10-06T23:32:37.635Z,10.70
2017-10-06T23:35:05.307Z,10.07
2017-10-06T23:37:33.019Z,10.73
2017-10-06T23:40:00.700Z,11.03
2017-10-06T23:42:28.347Z,10.20
2017-10-06T23:44:56.075Z,11.17
2017-10-06T23:47:23.750Z,11.77
2017-10-06T23:49:51.355Z,10.33
2017-10-06T23:52:19.009Z,11.03
2017-10-06T23:54:46.627Z,10.87
2017-10-06T23:57:14.236Z,10.07
2017-10-06T23:59:41.891Z,10.00
